Time;durP1;ratioP1;P1;durP2;ratioP2;P2;SDS_P1;SDS_P2;PMS_P1;PMS_P2;Temp;Humidity;BMP_temperature;BMP_pressure;BME280_temperature;BME280_humidity;BME280_pressure;Samples;Min_cycle;Max_cycle;Signal;HPM_P1;HPM_P2
2022/10/19 00:01:53;;;;;;;2.90;2.30;;;;;;;12.26;90.61;99132.71;106813;1307;22098;-68
2022/10/19 00:04:19;;;;;;;2.90;2.70;;;;;;;12.25;90.35;99127.62;107076;1288;22034;-68
2022/10/19 00:06:45;;;;;;;3.20;2.70;;;;;;;12.26;90.34;99118.07;106724;1307;137939;-67
2022/10/19 00:09:17;;;;;;;3.20;3.00;;;;;;;12.27;90.04;99115.52;106778;1294;22261;-68
2022/10/19 00:11:46;;;;;;;2.70;2.50;;;;;;;12.28;90.04;99118.94;106916;1284;138132;-68
2022/10/19 00:14:14;;;;;;;;;;;;;;;12.30;90.07;99122.42;107043;1285;22412;-68
2022/10/19 00:16:43;;;;;;;2.70;2.50;;;;;;;12.31;90.09;99121.73;106602;1309;22972;-68
2022/10/19 00:19:14;;;;;;;3.70;3.40;;;;;;;12.33;90.15;99124.73;106873;1291;137666;-68
2022/10/19 00:21:43;;;;;;;3.70;3.30;;;;;;;12.34;90.12;99128.90;106763;1307;22295;-68
2022/10/19 00:24:09;;;;;;;3.80;3.50;;;;;;;12.36;90.08;99130.30;106696;1302;137997;-68
2022/10/19 00:26:35;;;;;;;3.80;3.50;;;;;;;12.37;90.03;99127.77;106659;1307;22270;-68
2022/10/19 00:29:03;;;;;;;4.60;3.70;;;;;;;12.39;89.69;99128.27;106785;1293;22262;-68
2022/10/19 00:31:29;;;;;;;5.00;3.50;;;;;;;12.39;89.72;99128.69;106461;1307;138031;-68
2022/10/19 00:33:56;;;;;;;4.60;3.30;;;;;;;12.40;89.68;99121.48;106730;1307;23017;-68
2022/10/19 00:36:25;;;;;;;3.90;3.50;;;;;;;12.38;89.70;99119.91;106621;1307;137629;-68
2022/10/19 00:38:55;;;;;;;5.30;3.90;;;;;;;12.39;89.77;99115.70;106595;1307;22353;-68
2022/10/19 00:41:29;;;;;;;4.80;4.30;;;;;;;12.39;89.84;99116.97;106974;1300;22125;-68
2022/10/19 00:44:01;;;;;;;5.50;5.00;;;;;;;12.38;89.72;99118.92;106793;1299;22048;-68
2022/10/19 00:46:30;;;;;;;6.60;4.80;;;;;;;12.38;89.84;99127.15;106786;1307;22181;-68
2022/10/19 00:49:01;;;;;;;6.20;5.40;;;;;;;12.36;89.93;99122.94;106681;1307;138063;-68
2022/10/19 00:51:29;;;;;;;6.50;5.50;;;;;;;12.36;89.78;99121.50;106728;1285;22446;-68
2022/10/19 00:53:56;;;;;;;7.90;5.60;;;;;;;12.35;89.87;99111.48;106597;1302;137937;-68
2022/10/19 00:56:23;;;;;;;6.30;5.60;;;;;;;12.34;89.73;99107.73;106716;1307;22755;-68
2022/10/19 00:58:49;;;;;;;5.70;5.10;;;;;;;12.34;89.82;99104.91;106649;1309;22575;-68
2022/10/19 01:01:18;;;;;;;6.40;5.50;;;;;;;12.33;89.79;99100.25;106574;1307;137648;-68
2022/10/19 01:03:44;;;;;;;6.00;5.40;;;;;;;12.33;89.84;99093.25;106809;1307;22994;-68
2022/10/19 01:06:13;;;;;;;7.50;5.60;;;;;;;12.31;89.83;99091.15;106698;1307;137789;-68
2022/10/19 01:08:39;;;;;;;6.10;5.30;;;;;;;12.30;89.83;99094.66;106801;1307;23165;-68
2022/10/19 01:11:14;;;;;;;6.40;5.50;;;;;;;12.27;90.17;99096.30;106912;1287;22190;-68
2022/10/19 01:14:05;;;;;;;7.00;5.80;;;;;;;12.24;90.16;99092.42;106895;1299;137634;-68
2022/10/19 01:16:56;;;;;;;8.90;6.20;;;;;;;12.22;90.21;99091.75;107022;1294;22614;-68
2022/10/19 01:19:37;;;;;;;6.30;4.80;;;;;;;12.20;90.39;99094.73;106618;1307;137800;-67
2022/10/19 01:22:22;;;;;;;7.80;5.30;;;;;;;12.18;90.59;99090.64;106884;1287;22146;-68
2022/10/19 01:25:16;;;;;;;9.20;6.30;;;;;;;12.17;90.64;99087.67;106702;1302;137686;-68
2022/10/19 01:28:12;;;;;;;6.30;5.30;;;;;;;12.17;90.67;99081.44;106044;1316;23082;-68
2022/10/19 01:30:49;;;;;;;8.00;5.00;;;;;;;12.16;90.95;99075.52;105814;1301;137804;-68
2022/10/19 01:34:08;;;;;;;5.90;5.10;;;;;;;12.15;91.21;99073.86;106122;1315;22999;-68
2022/10/19 01:36:59;;;;;;;8.60;5.50;;;;;;;12.13;90.93;99066.09;105841;1304;138058;-71
2022/10/19 01:39:54;;;;;;;7.90;5.30;;;;;;;12.13;91.00;99063.31;105775;1319;22208;-70
2022/10/19 01:42:35;;;;;;;8.30;6.20;;;;;;;12.14;90.93;99067.08;104879;1315;138478;-70
2022/10/19 01:45:04;;;;;;;8.10;6.00;;;;;;;12.13;91.19;99070.38;104950;1321;22136;-71
2022/10/19 01:47:49;;;;;;;;;;;;;;;12.11;91.27;99069.31;104861;1326;138264;-71
2022/10/19 01:50:23;;;;;;;7.00;5.70;;;;;;;12.09;91.47;99068.72;104938;1327;22225;-70
2022/10/19 01:52:52;;;;;;;9.20;5.90;;;;;;;12.09;91.31;99075.55;105428;1318;22926;-70
2022/10/19 01:55:20;;;;;;;8.20;5.90;;;;;;;12.07;91.50;99072.21;104952;1325;137677;-71
2022/10/19 01:57:51;;;;;;;7.40;5.60;;;;;;;12.05;91.69;99069.68;105117;1325;22259;-70
2022/10/19 02:00:19;;;;;;;6.40;5.80;;;;;;;12.06;91.69;99064.17;105342;1318;137971;-71
2022/10/19 02:02:49;;;;;;;7.90;6.30;;;;;;;12.05;91.96;99065.04;104947;1316;22066;-71
2022/10/19 02:05:17;;;;;;;11.40;7.00;;;;;;;12.03;91.85;99063.23;105666;1297;23003;-70
2022/10/19 02:07:50;;;;;;;9.20;6.50;;;;;;;12.01;92.04;99055.16;105367;1321;138013;-71
2022/10/19 02:10:17;;;;;;;9.30;7.00;;;;;;;11.99;92.05;99052.38;105472;1320;22237;-70
2022/10/19 02:12:43;;;;;;;9.00;6.60;;;;;;;11.97;91.97;99051.70;105467;1307;137951;-70
2022/10/19 02:15:13;;;;;;;10.20;6.60;;;;;;;11.95;91.90;99049.20;106124;1316;22196;-70
2022/10/19 02:17:45;;;;;;;10.20;7.40;;;;;;;11.94;92.33;99050.33;106008;1314;138355;-71
2022/10/19 02:20:12;;;;;;;9.90;7.60;;;;;;;11.93;92.43;99057.83;106607;1309;22206;-71
2022/10/19 02:22:39;;;;;;;14.00;8.00;;;;;;;11.91;92.64;99055.83;106666;1282;22142;-71
2022/10/19 02:25:06;;;;;;;10.90;8.30;;;;;;;11.90;92.37;99059.12;106653;1307;138652;-71
2022/10/19 02:27:34;;;;;;;12.20;8.70;;;;;;;11.89;92.86;99058.88;106731;1307;22090;-71
2022/10/19 02:30:00;;;;;;;11.60;9.50;;;;;;;11.89;92.66;99061.48;106575;1308;138282;-71
2022/10/19 02:32:27;;;;;;;12.60;9.30;;;;;;;11.88;92.70;99056.66;106662;1294;22119;-71
2022/10/19 02:34:53;;;;;;;14.30;10.10;;;;;;;11.89;93.09;99052.23;106741;1305;22276;-70
2022/10/19 02:37:19;;;;;;;15.00;11.30;;;;;;;11.90;93.15;99055.09;106639;1293;138129;-71
2022/10/19 02:39:46;;;;;;;14.70;10.40;;;;;;;11.89;93.27;99045.70;106751;1307;22216;-71
2022/10/19 02:42:33;;;;;;;15.90;11.30;;;;;;;11.88;93.32;99041.10;106843;1286;138297;-71
2022/10/19 02:45:10;;;;;;;16.40;11.60;;;;;;;11.86;93.35;99043.77;106686;1292;22388;-71
2022/10/19 02:47:42;;;;;;;17.30;12.10;;;;;;;11.84;93.60;99040.46;106698;1307;138490;-71
2022/10/19 02:50:10;;;;;;;15.90;11.00;;;;;;;11.81;93.83;99035.27;106581;1307;22179;-71
2022/10/19 02:52:37;;;;;;;16.90;12.50;;;;;;;11.79;94.18;99039.14;106774;1293;22164;-71
2022/10/19 02:55:05;;;;;;;17.00;13.20;;;;;;;11.79;94.06;99037.52;106624;1301;138222;-71
2022/10/19 02:57:31;;;;;;;16.60;12.40;;;;;;;11.80;94.45;99040.73;106559;1302;22173;-70
2022/10/19 02:59:58;;;;;;;18.60;13.20;;;;;;;11.79;94.48;99044.66;106872;1299;138381;-71
2022/10/19 03:02:24;;;;;;;14.70;11.30;;;;;;;11.78;94.71;99042.15;106703;1299;22187;-71
2022/10/19 03:04:50;;;;;;;20.00;13.30;;;;;;;11.77;94.63;99044.70;106571;1307;22270;-71
2022/10/19 03:07:18;;;;;;;18.20;12.90;;;;;;;11.77;94.77;99044.61;106691;1292;138057;-70
2022/10/19 03:09:45;;;;;;;18.50;13.80;;;;;;;11.75;94.73;99042.24;106795;1307;22597;-71
2022/10/19 03:12:12;;;;;;;19.80;13.70;;;;;;;11.74;94.82;99038.40;106921;1297;138379;-71
2022/10/19 03:14:38;;;;;;;17.30;13.00;;;;;;;11.74;94.84;99041.45;106728;1307;22332;-71
2022/10/19 03:17:04;;;;;;;18.40;14.10;;;;;;;11.73;94.86;99048.69;106771;1307;22187;-68
2022/10/19 03:19:31;;;;;;;18.40;13.00;;;;;;;11.73;94.86;99044.47;106626;1307;138150;-69
2022/10/19 03:21:57;;;;;;;19.50;13.60;;;;;;;11.72;94.98;99041.55;106702;1307;22330;-69
2022/10/19 03:24:24;;;;;;;18.50;13.70;;;;;;;11.71;94.84;99038.49;106666;1292;138107;-69
2022/10/19 03:26:50;;;;;;;19.30;13.70;;;;;;;11.69;94.62;99041.00;106798;1305;22370;-69
2022/10/19 03:29:16;;;;;;;20.20;14.40;;;;;;;11.69;94.86;99042.73;106816;1307;22875;-69
2022/10/19 03:31:42;;;;;;;18.80;14.20;;;;;;;11.67;94.88;99039.75;106677;1307;138227;-69
2022/10/19 03:34:08;;;;;;;16.10;12.20;;;;;;;11.67;94.90;99034.67;106713;1293;22185;-69
2022/10/19 03:36:39;;;;;;;17.40;13.50;;;;;;;11.66;94.92;99037.33;106590;1307;138144;-69
2022/10/19 03:39:10;;;;;;;17.40;13.60;;;;;;;11.66;95.23;99035.42;106704;1307;22246;-69
2022/10/19 03:41:36;;;;;;;17.90;13.50;;;;;;;11.65;95.43;99033.59;106490;1291;138244;-69
2022/10/19 03:44:04;;;;;;;18.00;13.90;;;;;;;11.63;95.14;99032.02;106724;1293;22263;-69
2022/10/19 03:46:31;;;;;;;19.10;13.70;;;;;;;11.61;95.11;99037.64;107021;1300;22309;-69
2022/10/19 03:48:57;;;;;;;19.20;13.20;;;;;;;11.60;95.14;99037.96;106700;1307;138415;-68
2022/10/19 03:51:25;;;;;;;21.20;14.00;;;;;;;11.57;95.17;99034.90;106799;1306;22188;-69
2022/10/19 03:53:55;;;;;;;17.50;14.00;;;;;;;11.56;95.45;99035.23;106660;1293;138264;-69
2022/10/19 03:56:23;;;;;;;19.00;13.70;;;;;;;11.55;95.67;99027.70;106754;1306;22940;-69
2022/10/19 03:58:51;;;;;;;19.90;14.50;;;;;;;11.56;95.82;99026.69;106707;1307;22347;-69
2022/10/19 04:01:20;;;;;;;18.00;14.20;;;;;;;11.56;95.60;99022.15;106615;1301;138248;-69
2022/10/19 04:03:46;;;;;;;18.90;14.30;;;;;;;11.54;95.42;99015.85;106735;1293;22321;-69
2022/10/19 04:06:16;;;;;;;17.30;13.40;;;;;;;11.53;95.34;99015.59;106608;1306;138344;-70
2022/10/19 04:08:43;;;;;;;19.20;13.30;;;;;;;11.51;95.15;99016.79;106788;1302;22173;-70
2022/10/19 04:11:13;;;;;;;18.40;13.50;;;;;;;11.47;95.18;99022.06;106806;1301;22169;-69
2022/10/19 04:13:40;;;;;;;17.80;13.00;;;;;;;11.46;94.92;99018.43;106889;1293;138148;-69
2022/10/19 04:16:12;;;;;;;16.50;13.30;;;;;;;11.45;94.96;99018.04;106793;1307;22890;-69
2022/10/19 04:18:38;;;;;;;18.30;14.00;;;;;;;11.46;94.92;99011.94;106680;1297;138322;-69
2022/10/19 04:21:05;;;;;;;18.40;14.00;;;;;;;11.46;94.92;99020.45;106794;1307;22093;-69
2022/10/19 04:23:34;;;;;;;22.30;14.50;;;;;;;11.46;94.98;99015.92;106644;1288;138780;-70
2022/10/19 04:26:02;;;;;;;20.20;14.10;;;;;;;11.45;94.68;99012.63;106783;1306;22900;-69
2022/10/19 04:28:31;;;;;;;22.20;15.60;;;;;;;11.43;94.79;99015.51;106851;1307;22126;-69
2022/10/19 04:31:01;;;;;;;25.10;14.60;;;;;;;11.40;94.70;99012.57;106728;1307;138746;-69
2022/10/19 04:33:27;;;;;;;21.20;14.40;;;;;;;11.39;94.70;99010.30;106821;1307;22223;-69
2022/10/19 04:36:00;;;;;;;21.20;13.90;;;;;;;11.36;94.64;99010.46;106670;1307;138314;-69
2022/10/19 04:38:28;;;;;;;17.40;12.70;;;;;;;11.32;94.23;99012.21;106618;1309;22835;-69
2022/10/19 04:40:55;;;;;;;15.80;10.80;;;;;;;11.29;94.32;99012.42;106767;1306;23141;-69
2022/10/19 04:43:24;;;;;;;14.30;10.70;;;;;;;11.26;94.51;99010.93;106613;1308;138131;-69
2022/10/19 04:45:50;;;;;;;11.80;8.80;;;;;;;11.24;94.45;99011.64;106760;1293;22251;-70
2022/10/19 04:48:16;;;;;;;10.40;9.00;;;;;;;11.22;94.31;99009.03;106524;1309;138481;-69
2022/10/19 04:50:42;;;;;;;14.50;10.20;;;;;;;11.19;94.31;99004.82;106809;1307;22379;-69
2022/10/19 04:53:19;;;;;;;11.80;9.00;;;;;;;11.18;94.35;99001.41;106774;1307;22219;-69
2022/10/19 04:55:45;;;;;;;16.40;10.00;;;;;;;11.17;94.20;98999.92;106655;1293;137807;-69
2022/10/19 04:58:11;;;;;;;13.40;9.30;;;;;;;11.17;93.96;99001.56;106708;1307;22937;-69
2022/10/19 05:00:37;;;;;;;11.30;9.50;;;;;;;11.17;94.46;99001.97;106638;1307;138009;-69
2022/10/19 05:03:04;;;;;;;13.70;8.90;;;;;;;11.18;94.31;99007.50;106720;1307;22201;-69
2022/10/19 05:05:31;;;;;;;14.60;9.60;;;;;;;11.17;93.94;99009.66;106611;1293;138593;-70
2022/10/19 05:07:57;;;;;;;12.80;9.50;;;;;;;11.16;94.01;99008.00;106647;1310;22848;-69
2022/10/19 05:10:23;;;;;;;11.90;9.70;;;;;;;11.15;93.81;99004.48;106800;1307;22262;-69
2022/10/19 05:12:49;;;;;;;18.40;9.60;;;;;;;11.14;93.94;99004.38;106671;1292;138018;-69
2022/10/19 05:15:16;;;;;;;16.50;10.20;;;;;;;11.14;93.85;99010.36;107008;1294;22203;-69
2022/10/19 05:17:42;;;;;;;16.70;12.10;;;;;;;11.15;93.80;99015.84;106544;1308;138325;-69
2022/10/19 05:20:10;;;;;;;20.60;13.60;;;;;;;11.16;94.07;99016.30;106996;1299;22167;-69
2022/10/19 05:22:37;;;;;;;18.50;13.60;;;;;;;11.17;93.83;99011.70;106694;1307;22269;-69
2022/10/19 05:25:05;;;;;;;21.10;13.90;;;;;;;11.18;93.87;99015.84;106583;1293;138817;-69
2022/10/19 05:27:31;;;;;;;23.50;14.10;;;;;;;11.19;93.79;99012.89;106750;1307;22215;-69
2022/10/19 05:29:57;;;;;;;18.40;13.10;;;;;;;11.20;93.59;99011.66;106417;1307;138371;-69
2022/10/19 05:32:24;;;;;;;17.00;12.10;;;;;;;11.20;93.54;99011.48;106707;1292;22264;-69
2022/10/19 05:34:50;;;;;;;19.20;12.50;;;;;;;11.19;93.22;99016.38;106566;1293;22148;-70
2022/10/19 05:37:16;;;;;;;14.70;10.80;;;;;;;11.18;93.30;99010.77;106651;1307;138091;-69
2022/10/19 05:39:42;;;;;;;15.80;10.40;;;;;;;11.16;93.05;99014.45;106978;1299;22234;-69
2022/10/19 05:42:08;;;;;;;16.40;11.00;;;;;;;11.13;92.88;99017.64;106610;1299;138489;-69
2022/10/19 05:44:35;;;;;;;17.90;10.90;;;;;;;11.11;92.59;99023.80;106645;1307;22315;-71
2022/10/19 05:47:01;;;;;;;12.70;9.50;;;;;;;11.07;92.44;99025.59;106697;1292;22976;-69
2022/10/19 05:49:28;;;;;;;14.00;10.20;;;;;;;11.02;92.17;99026.25;106469;1291;138046;-69
2022/10/19 05:51:54;;;;;;;13.00;10.30;;;;;;;10.96;92.13;99025.13;106763;1301;22829;-69
2022/10/19 05:54:20;;;;;;;15.60;9.80;;;;;;;10.91;92.01;99023.91;106694;1307;138229;-69
2022/10/19 05:56:47;;;;;;;16.60;9.50;;;;;;;10.86;91.79;99025.75;106835;1293;22351;-69
2022/10/19 05:59:15;;;;;;;12.00;7.30;;;;;;;10.81;91.81;99022.63;106756;1307;22272;-69
2022/10/19 06:01:42;;;;;;;12.50;7.90;;;;;;;10.76;91.30;99023.89;106597;1307;137784;-69
2022/10/19 06:04:09;;;;;;;12.50;7.70;;;;;;;10.70;91.04;99026.30;107045;1284;22065;-69
2022/10/19 06:06:35;;;;;;;14.70;6.70;;;;;;;10.65;90.88;99028.98;106657;1293;138159;-69
2022/10/19 06:09:02;;;;;;;12.20;7.20;;;;;;;10.61;90.85;99033.80;106823;1307;22122;-70
2022/10/19 06:11:33;;;;;;;10.10;6.80;;;;;;;10.62;90.54;99040.22;106674;1307;138166;-69
2022/10/19 06:14:01;;;;;;;10.60;7.20;;;;;;;10.60;89.95;99038.52;106844;1293;22162;-69
2022/10/19 06:16:29;;;;;;;14.50;6.80;;;;;;;10.59;90.03;99038.21;106821;1307;22096;-70
2022/10/19 06:18:57;;;;;;;20.10;7.20;;;;;;;10.57;89.52;99039.86;106914;1293;138509;-69
2022/10/19 06:21:26;;;;;;;14.50;7.30;;;;;;;10.58;89.94;99038.09;106645;1309;22056;-70
2022/10/19 06:23:55;;;;;;;10.50;6.50;;;;;;;10.62;89.87;99037.58;106571;1301;138153;-69
2022/10/19 06:26:22;;;;;;;13.70;7.10;;;;;;;10.64;89.73;99037.00;106511;1296;23818;-70
2022/10/19 06:28:49;;;;;;;13.60;7.90;;;;;;;10.68;90.10;99040.18;106781;1283;22113;-69
2022/10/19 06:31:16;;;;;;;13.20;6.90;;;;;;;10.72;89.97;99041.75;106490;1310;139397;-69
2022/10/19 06:33:43;;;;;;;13.30;7.20;;;;;;;10.75;89.76;99043.39;106788;1276;22308;-70
2022/10/19 06:36:14;;;;;;;12.50;6.10;;;;;;;10.79;89.70;99041.73;106703;1294;138003;-70
2022/10/19 06:38:41;;;;;;;13.90;7.70;;;;;;;10.83;89.74;99045.23;107050;1278;23076;-71
2022/10/19 06:41:07;;;;;;;16.20;8.10;;;;;;;10.88;89.70;99044.20;106769;1301;22135;-69
2022/10/19 06:43:34;;;;;;;13.40;8.20;;;;;;;10.92;89.45;99048.41;106648;1307;137957;-69
2022/10/19 06:46:06;;;;;;;16.70;8.40;;;;;;;10.98;89.43;99054.11;106762;1307;22089;-69
2022/10/19 06:48:32;;;;;;;15.20;8.50;;;;;;;11.04;89.45;99055.08;106927;1286;137959;-69
2022/10/19 06:51:00;;;;;;;15.40;8.60;;;;;;;11.12;89.66;99057.67;107034;1295;23008;-71
2022/10/19 06:53:27;;;;;;;15.00;8.50;;;;;;;11.19;89.40;99060.66;106756;1307;22085;-70
2022/10/19 06:56:02;;;;;;;15.90;8.80;;;;;;;11.29;89.04;99062.02;106841;1307;22118;-69
2022/10/19 06:58:29;;;;;;;15.60;8.40;;;;;;;11.39;88.99;99065.72;106694;1308;22107;-69
2022/10/19 07:01:00;;;;;;;17.60;8.60;;;;;;;11.49;88.98;99056.30;106650;1307;137849;-69
2022/10/19 07:03:27;;;;;;;16.30;9.10;;;;;;;11.57;88.88;99057.30;106742;1307;22805;-69
2022/10/19 07:05:56;;;;;;;14.10;9.10;;;;;;;11.64;88.55;99062.77;106687;1291;138042;-69
2022/10/19 07:08:22;;;;;;;13.70;8.50;;;;;;;11.69;87.99;99060.33;107003;1293;22248;-69
2022/10/19 07:10:50;;;;;;;15.70;9.40;;;;;;;11.74;87.67;99059.95;107070;1300;22394;-69
2022/10/19 07:13:17;;;;;;;14.40;9.00;;;;;;;11.78;87.17;99061.72;106732;1307;137773;-69
2022/10/19 07:15:43;;;;;;;11.90;8.90;;;;;;;11.81;87.06;99062.34;106830;1304;22146;-69
2022/10/19 07:18:09;;;;;;;16.50;8.90;;;;;;;11.84;86.89;99072.39;106947;1293;137975;-69
2022/10/19 07:20:35;;;;;;;12.80;9.00;;;;;;;11.86;86.35;99073.37;106595;1309;22148;-69
2022/10/19 07:23:02;;;;;;;11.10;9.00;;;;;;;11.87;86.22;99072.63;107007;1294;22037;-69
2022/10/19 07:25:29;;;;;;;15.30;9.10;;;;;;;11.88;85.92;99075.77;106900;1294;137890;-69
2022/10/19 07:27:56;;;;;;;16.70;9.40;;;;;;;11.86;85.62;99075.34;106999;1299;22065;-69
2022/10/19 07:30:22;;;;;;;19.00;12.00;;;;;;;11.84;84.54;99079.05;106714;1303;138134;-70
2022/10/19 07:32:48;;;;;;;24.00;14.70;;;;;;;11.81;84.64;99082.25;106842;1307;22106;-69
2022/10/19 07:35:14;;;;;;;18.30;11.00;;;;;;;11.77;84.53;99080.33;107065;1282;22305;-69
2022/10/19 07:37:40;;;;;;;20.00;10.40;;;;;;;11.76;84.21;99084.93;106508;1296;137991;-69
2022/10/19 07:40:07;;;;;;;12.50;8.50;;;;;;;11.74;84.38;99089.59;107021;1286;22059;-69
2022/10/19 07:42:36;;;;;;;18.00;9.70;;;;;;;11.73;84.59;99093.09;106925;1299;137812;-70
2022/10/19 07:45:03;;;;;;;18.40;9.90;;;;;;;11.74;84.83;99093.35;106774;1307;22157;-69
2022/10/19 07:47:29;;;;;;;16.00;9.90;;;;;;;11.78;84.68;99088.80;106661;1296;138040;-70
2022/10/19 07:49:55;;;;;;;21.40;10.90;;;;;;;11.78;84.46;99089.46;106688;1302;22107;-69
2022/10/19 07:52:21;;;;;;;18.60;12.40;;;;;;;11.77;84.51;99094.79;106674;1301;22415;-69
2022/10/19 07:54:48;;;;;;;19.40;12.50;;;;;;;11.74;84.57;99094.58;106796;1300;137993;-69
2022/10/19 07:57:15;;;;;;;20.90;11.70;;;;;;;11.70;84.56;99087.45;106673;1308;22073;-70
2022/10/19 07:59:41;;;;;;;20.60;13.10;;;;;;;11.67;84.67;99088.90;106658;1293;138337;-70
2022/10/19 08:02:15;;;;;;;27.20;13.80;;;;;;;11.64;84.81;99087.70;106837;1285;22108;-69
2022/10/19 08:04:42;;;;;;;26.50;13.60;;;;;;;11.64;85.07;99087.90;106845;1307;22372;-69
2022/10/19 08:07:09;;;;;;;23.60;14.60;;;;;;;11.66;85.33;99087.41;106746;1302;137935;-69
2022/10/19 08:09:35;;;;;;;27.10;14.20;;;;;;;11.71;85.38;99088.67;106751;1295;22176;-69
2022/10/19 08:12:02;;;;;;;23.60;13.70;;;;;;;11.79;85.11;99089.21;106893;1299;138326;-69
2022/10/19 08:14:28;;;;;;;25.10;14.50;;;;;;;11.87;85.30;99086.50;106725;1306;22998;-69
2022/10/19 08:16:54;;;;;;;26.30;14.70;;;;;;;11.95;85.28;99086.33;106721;1285;22143;-69
2022/10/19 08:19:21;;;;;;;24.10;13.40;;;;;;;12.01;85.29;99082.36;106622;1285;138577;-69
2022/10/19 08:21:47;;;;;;;22.30;12.90;;;;;;;12.07;84.63;99083.86;107071;1300;22124;-69
2022/10/19 08:24:15;;;;;;;19.10;12.10;;;;;;;12.11;84.62;99081.42;107005;1285;137980;-69
2022/10/19 08:26:42;;;;;;;14.80;10.00;;;;;;;12.13;84.22;99082.84;106824;1302;22355;-68
2022/10/19 08:29:17;;;;;;;15.40;8.10;;;;;;;12.13;81.85;99085.75;106797;1292;22112;-68
2022/10/19 08:31:45;;;;;;;22.70;8.30;;;;;;;12.10;80.71;99082.18;106875;1294;138032;-69
2022/10/19 08:34:12;;;;;;;11.80;6.10;;;;;;;12.06;79.50;99078.83;106848;1278;22062;-69
2022/10/19 08:36:38;;;;;;;12.20;5.60;;;;;;;12.00;78.17;99081.56;106627;1307;138285;-69
2022/10/19 08:39:07;;;;;;;11.40;5.60;;;;;;;11.94;78.34;99084.01;106705;1300;22246;-68
2022/10/19 08:41:39;;;;;;;10.00;6.10;;;;;;;11.89;77.89;99082.48;106611;1301;138167;-69
2022/10/19 08:44:27;;;;;;;10.40;6.00;;;;;;;11.86;77.82;99081.55;106782;1292;22808;-69
2022/10/19 08:47:31;;;;;;;10.00;5.50;;;;;;;11.84;78.76;99083.14;106838;1307;22090;-69
2022/10/19 08:49:58;;;;;;;8.90;5.80;;;;;;;11.81;78.03;99082.69;106821;1294;22130;-69
2022/10/19 08:52:29;;;;;;;8.20;4.70;;;;;;;11.78;77.81;99085.13;106768;1307;22118;-69
2022/10/19 08:54:59;;;;;;;11.00;5.10;;;;;;;11.74;76.71;99080.34;106634;1308;137855;-70
2022/10/19 08:57:39;;;;;;;12.40;5.80;;;;;;;11.69;76.80;99074.34;106768;1309;22307;-69
2022/10/19 09:00:11;;;;;;;7.40;5.00;;;;;;;11.65;77.00;99071.95;106908;1286;138047;-69
2022/10/19 09:02:46;;;;;;;11.30;4.80;;;;;;;11.63;77.46;99081.50;106816;1307;22897;-71
2022/10/19 09:05:42;;;;;;;12.00;5.10;;;;;;;11.63;77.35;99083.86;106664;1308;22262;-69
2022/10/19 09:08:10;;;;;;;10.60;4.60;;;;;;;11.61;76.06;99087.14;106034;1316;22391;-69
2022/10/19 09:10:39;;;;;;;7.80;5.00;;;;;;;11.57;74.83;99083.23;106079;1316;22250;-69
2022/10/19 09:13:35;;;;;;;8.50;4.00;;;;;;;11.57;74.98;99084.76;105826;1317;137908;-69
2022/10/19 09:16:03;;;;;;;9.60;4.30;;;;;;;11.62;75.07;99079.85;106438;1301;22219;-69
2022/10/19 09:18:32;;;;;;;8.30;4.40;;;;;;;11.66;74.73;99078.31;106297;1308;137650;-68
2022/10/19 09:21:39;;;;;;;7.20;4.60;;;;;;;11.70;74.16;99078.95;106465;1299;22251;-69
2022/10/19 09:24:19;;;;;;;7.90;3.80;;;;;;;11.76;72.90;99087.77;106388;1309;138191;-69
2022/10/19 09:26:52;;;;;;;8.90;3.00;;;;;;;11.80;72.16;99083.01;106216;1316;22433;-69
2022/10/19 09:29:36;;;;;;;8.10;1.90;;;;;;;11.85;71.04;99079.39;106168;1316;22235;-69
2022/10/19 09:32:10;;;;;;;4.70;2.10;;;;;;;11.90;68.16;99078.73;105961;1294;22280;-68
2022/10/19 09:34:50;;;;;;;6.80;1.80;;;;;;;11.97;67.83;99077.52;105754;1285;241784;-69
2022/10/19 09:37:19;;;;;;;5.40;1.60;;;;;;;12.04;65.73;99074.73;106254;1295;139703;-69
2022/10/19 09:39:45;;;;;;;4.70;1.40;;;;;;;12.11;65.36;99076.13;105895;1317;22443;-69
2022/10/19 09:42:32;;;;;;;3.90;1.50;;;;;;;12.17;64.87;99080.73;106041;1302;137928;-68
2022/10/19 09:45:00;;;;;;;3.80;1.50;;;;;;;12.19;64.66;99072.14;106229;1311;22141;-69
2022/10/19 09:47:37;;;;;;;6.60;1.90;;;;;;;12.20;65.17;99077.58;106833;1307;22082;-68
2022/10/19 09:50:12;;;;;;;3.60;2.20;;;;;;;12.24;65.59;99073.68;106803;1295;22088;-70
2022/10/19 09:52:41;;;;;;;6.40;1.80;;;;;;;12.25;64.54;99070.48;106976;1299;23161;-68
2022/10/19 09:55:13;;;;;;;4.70;2.10;;;;;;;12.23;64.86;99064.42;106504;1309;137687;-69
2022/10/19 09:57:43;;;;;;;7.10;2.00;;;;;;;12.26;65.77;99068.54;106732;1307;22086;-68
2022/10/19 10:00:37;;;;;;;4.10;1.90;;;;;;;12.30;66.36;99066.77;106646;1309;138266;-69
2022/10/19 10:03:05;;;;;;;7.40;1.90;;;;;;;12.38;65.01;99065.59;106717;1301;22803;-70
2022/10/19 10:05:38;;;;;;;3.90;1.40;;;;;;;12.42;64.28;99060.29;106720;1305;23153;-69
2022/10/19 10:08:13;;;;;;;4.00;1.30;;;;;;;12.48;62.47;99058.66;106777;1307;22597;-68
2022/10/19 10:10:44;;;;;;;3.30;1.40;;;;;;;12.52;62.06;99060.92;106834;1307;22092;-68
2022/10/19 10:13:24;;;;;;;6.50;1.50;;;;;;;12.54;61.70;99060.36;106898;1285;137268;-68
2022/10/19 10:15:56;;;;;;;5.50;1.90;;;;;;;12.57;61.87;99062.21;106787;1308;22620;-68
2022/10/19 10:18:24;;;;;;;5.20;1.60;;;;;;;12.54;61.15;99071.68;106657;1309;137131;-68
2022/10/19 10:20:58;;;;;;;4.50;1.90;;;;;;;12.48;60.79;99078.61;106618;1309;22275;-68
2022/10/19 10:23:27;;;;;;;4.60;1.30;;;;;;;12.37;59.77;99086.15;106706;1291;22082;-68
2022/10/19 10:25:58;;;;;;;5.10;1.20;;;;;;;12.27;59.46;99081.39;106926;1298;136973;-68
2022/10/19 10:28:26;;;;;;;4.20;1.30;;;;;;;12.20;60.47;99089.54;106838;1307;22096;-68
2022/10/19 10:31:05;;;;;;;4.70;1.50;;;;;;;12.12;60.28;99087.62;106966;1300;137009;-68
2022/10/19 10:33:35;;;;;;;3.80;1.30;;;;;;;12.06;60.42;99081.27;106759;1299;22296;-69
2022/10/19 10:36:06;;;;;;;7.30;2.10;;;;;;;12.02;60.06;99083.52;106844;1299;137208;-68
2022/10/19 10:38:35;;;;;;;3.90;1.60;;;;;;;12.02;60.20;99081.05;106910;1298;22134;-68
2022/10/19 10:41:09;;;;;;;4.50;1.30;;;;;;;12.02;60.49;99080.58;107025;1290;22991;-68
2022/10/19 10:43:48;;;;;;;2.20;1.20;;;;;;;12.04;60.90;99073.41;106653;1293;137011;-68
2022/10/19 10:46:21;;;;;;;4.90;1.30;;;;;;;12.07;61.43;99079.23;106843;1307;23052;-68
2022/10/19 10:48:55;;;;;;;3.70;1.20;;;;;;;12.13;61.64;99070.78;106752;1307;137028;-68
2022/10/19 10:51:41;;;;;;;2.70;1.20;;;;;;;12.24;62.05;99070.02;106864;1307;22231;-68
2022/10/19 10:54:13;;;;;;;4.60;1.60;;;;;;;12.37;62.25;99066.31;106881;1299;137616;-68
2022/10/19 10:56:42;;;;;;;1.60;1.30;;;;;;;12.45;61.76;99060.45;106793;1309;22221;-68
2022/10/19 10:59:25;;;;;;;6.60;1.50;;;;;;;12.50;61.58;99059.08;107057;1288;22842;-68
2022/10/19 11:02:01;;;;;;;3.50;1.20;;;;;;;12.53;61.13;99061.31;106659;1307;136977;-68
2022/10/19 11:04:35;;;;;;;3.50;1.10;;;;;;;12.48;58.86;99058.87;106817;1307;22087;-68
2022/10/19 11:07:15;;;;;;;4.70;1.30;;;;;;;12.39;58.22;99061.37;106728;1307;136975;-68
2022/10/19 11:09:45;;;;;;;3.90;1.40;;;;;;;12.25;57.57;99065.39;106814;1297;22906;-68
2022/10/19 11:12:18;;;;;;;6.50;2.20;;;;;;;12.12;58.11;99070.82;106945;1285;137182;-68
2022/10/19 11:14:56;;;;;;;3.80;1.20;;;;;;;12.02;58.13;99080.14;107007;1300;22338;-68
2022/10/19 11:17:28;;;;;;;3.30;1.20;;;;;;;11.89;56.99;99083.23;106984;1288;22890;-68
2022/10/19 11:19:55;;;;;;;2.30;0.80;;;;;;;11.79;57.42;99077.86;106898;1295;137094;-68
2022/10/19 11:22:25;;;;;;;1.90;0.80;;;;;;;11.73;58.24;99081.95;106739;1310;22197;-69
2022/10/19 11:25:19;;;;;;;3.30;0.90;;;;;;;11.69;58.66;99082.52;106533;1299;137040;-68
2022/10/19 11:27:57;;;;;;;2.30;1.50;;;;;;;11.69;59.18;99086.08;106814;1302;22318;-68
2022/10/19 11:30:24;;;;;;;5.10;1.40;;;;;;;11.70;59.53;99091.71;106693;1299;136993;-70